Time;durP1;ratioP1;P1;durP2;ratioP2;P2;SDS_P1;SDS_P2;PMS_P1;PMS_P2;Temp;Humidity;BMP_temperature;BMP_pressure;BME280_temperature;BME280_humidity;BME280_pressure;Samples;Min_cycle;Max_cycle;Signal;HPM_P1;HPM_P2
2021/04/03 00:01:07;;;;;;;8.35;1.77;;;7.00;66.10;;;;;;4979003;28;20070;-94
2021/04/03 00:03:33;;;;;;;4.53;1.30;;;7.00;66.20;;;;;;4977717;28;20038;-94
2021/04/03 00:05:59;;;;;;;6.30;1.48;;;7.00;66.20;;;;;;4979171;28;20023;-94
2021/04/03 00:08:25;;;;;;;4.72;1.17;;;7.00;66.10;;;;;;4978291;28;20026;-94
2021/04/03 00:10:53;;;;;;;6.70;1.60;;;7.00;66.00;;;;;;4982941;28;20427;-95
2021/04/03 00:13:21;;;;;;;9.38;2.08;;;7.00;66.10;;;;;;4973995;28;20031;-95
2021/04/03 00:15:47;;;;;;;5.20;1.67;;;7.00;66.10;;;;;;4976768;28;20031;-94
2021/04/03 00:18:14;;;;;;;5.50;1.55;;;7.00;66.10;;;;;;4977666;28;20057;-95
2021/04/03 00:20:40;;;;;;;5.78;1.60;;;7.00;66.10;;;;;;4978589;28;20478;-96
2021/04/03 00:23:06;;;;;;;4.85;1.40;;;7.00;66.10;;;;;;4985074;28;20058;-96
2021/04/03 00:25:32;;;;;;;6.25;2.00;;;7.10;66.00;;;;;;4978851;28;20019;-96
2021/04/03 00:27:58;;;;;;;7.07;1.75;;;7.10;66.00;;;;;;4976613;28;20057;-96
2021/04/03 00:30:24;;;;;;;7.07;1.67;;;7.10;65.90;;;;;;4978749;28;20046;-96
2021/04/03 00:32:52;;;;;;;5.20;1.25;;;7.10;65.90;;;;;;4978543;28;20121;-96
2021/04/03 00:35:21;;;;;;;5.63;1.40;;;7.10;65.90;;;;;;4978175;28;20019;-93
2021/04/03 00:37:47;;;;;;;6.20;1.65;;;7.10;65.90;;;;;;4975866;28;20034;-94
2021/04/03 00:40:16;;;;;;;4.60;1.17;;;7.20;65.90;;;;;;4977376;28;20509;-94
2021/04/03 00:42:43;;;;;;;4.28;1.20;;;7.20;65.90;;;;;;4977093;28;20022;-95
2021/04/03 00:45:10;;;;;;;6.15;1.70;;;7.20;65.70;;;;;;4978902;28;20031;-95
2021/04/03 00:47:36;;;;;;;4.72;1.50;;;7.20;65.60;;;;;;4980319;28;20027;-93
2021/04/03 00:50:02;;;;;;;5.78;1.50;;;7.20;65.70;;;;;;4987423;28;20030;-96
2021/04/03 00:52:28;;;;;;;3.45;1.17;;;7.20;65.70;;;;;;4994914;28;20042;-96
2021/04/03 00:54:53;;;;;;;5.72;1.25;;;7.20;65.70;;;;;;4993120;28;20082;-96
2021/04/03 01:02:30;;;;;;;5.72;1.38;;;7.20;65.60;;;;;;5088614;23;20043;-96
2021/04/03 01:04:56;;;;;;;4.00;1.05;;;7.20;65.70;;;;;;4985823;28;20034;-96
2021/04/03 01:07:21;;;;;;;5.38;1.23;;;7.30;65.60;;;;;;4981844;28;20030;-96
2021/04/03 01:09:47;;;;;;;6.07;1.40;;;7.30;65.50;;;;;;4978019;28;20022;-96
2021/04/03 01:12:19;;;;;;;5.63;1.33;;;7.30;65.50;;;;;;4977034;28;20046;-96
2021/04/03 01:15:26;;;;;;;6.57;1.73;;;7.30;65.40;;;;;;4987197;28;20023;-96
2021/04/03 01:18:00;;;;;;;4.13;1.33;;;7.30;65.30;;;;;;4974074;28;20042;-96
2021/04/03 01:25:40;;;;;;;5.28;1.67;;;7.30;65.10;;;;;;4923067;29;20055;-95
2021/04/03 01:28:39;;;;;;;6.60;1.63;;;7.30;65.10;;;;;;4935504;29;20040;-95
2021/04/03 01:31:06;;;;;;;6.05;1.40;;;7.30;65.10;;;;;;4947171;28;20109;-95
2021/04/03 01:33:34;;;;;;;5.88;1.58;;;7.30;65.10;;;;;;4938530;29;20024;-96
2021/04/03 01:36:20;;;;;;;4.68;1.17;;;7.30;65.10;;;;;;4937612;28;20024;-94
2021/04/03 01:38:53;;;;;;;2.95;1.27;;;7.30;65.10;;;;;;4933556;29;20034;-93
2021/04/03 01:41:24;;;;;;;4.45;1.70;;;7.30;65.00;;;;;;4937873;29;20574;-93
2021/04/03 01:43:53;;;;;;;6.07;1.38;;;7.30;65.00;;;;;;4937427;29;20498;-94
2021/04/03 01:46:22;;;;;;;5.35;1.38;;;7.30;64.90;;;;;;4933987;29;20027;-95
2021/04/03 01:48:50;;;;;;;4.40;1.35;;;7.30;64.90;;;;;;4944584;29;20028;-95
2021/04/03 01:51:17;;;;;;;5.93;1.40;;;7.40;65.00;;;;;;4939393;29;20431;-94
2021/04/03 01:53:45;;;;;;;6.20;1.63;;;7.40;64.90;;;;;;4936324;29;20106;-95
2021/04/03 01:56:13;;;;;;;5.50;1.52;;;7.30;64.80;;;;;;4939686;29;20050;-95
2021/04/03 01:58:40;;;;;;;6.57;1.90;;;7.40;64.90;;;;;;5211648;23;20953;-97
2021/04/03 02:01:08;;;;;;;6.68;1.60;;;7.40;64.90;;;;;;4991647;28;20098;-95
2021/04/03 02:03:34;;;;;;;7.32;1.73;;;7.40;64.80;;;;;;4975711;28;20367;-96
2021/04/03 02:06:03;;;;;;;4.22;1.30;;;7.40;64.80;;;;;;4975334;28;20027;-95
2021/04/03 02:08:29;;;;;;;4.28;1.40;;;7.40;64.70;;;;;;4979932;28;20058;-96
2021/04/03 02:11:00;;;;;;;7.65;1.80;;;7.50;64.70;;;;;;4985958;28;20034;-96
2021/04/03 02:21:26;;;;;;;5.88;1.40;;;7.40;64.50;;;;;;5522792;23;20043;-96
2021/04/03 02:23:52;;;;;;;8.70;2.13;;;7.40;64.40;;;;;;5043099;23;20011;-94
2021/04/03 02:26:18;;;;;;;5.95;1.35;;;7.40;64.30;;;;;;4976429;28;20066;-94
2021/04/03 02:28:44;;;;;;;5.90;1.65;;;7.40;64.20;;;;;;4990002;28;20045;-95
2021/04/03 02:31:09;;;;;;;5.65;1.42;;;7.50;64.10;;;;;;4990963;28;20035;-96
2021/04/03 02:33:35;;;;;;;5.82;1.50;;;7.50;64.00;;;;;;4981467;28;20478;-96
2021/04/03 02:36:00;;;;;;;5.90;1.52;;;7.40;63.90;;;;;;4995266;28;20034;-94
2021/04/03 02:38:26;;;;;;;5.60;1.92;;;7.40;63.90;;;;;;4981145;28;20054;-95
2021/04/03 02:40:52;;;;;;;8.93;1.92;;;7.30;64.50;;;;;;4973494;28;20109;-95
2021/04/03 02:43:39;;;;;;;6.25;1.60;;;7.40;63.90;;;;;;4985996;28;20038;-96
2021/04/03 02:46:14;;;;;;;5.95;1.50;;;7.30;63.90;;;;;;4993561;28;20035;-96
2021/04/03 02:48:43;;;;;;;4.78;1.35;;;7.30;64.00;;;;;;4985399;28;20015;-95
2021/04/03 02:51:12;;;;;;;7.53;1.83;;;7.30;64.00;;;;;;4975226;28;20035;-95
2021/04/03 02:53:38;;;;;;;6.40;1.50;;;7.30;64.10;;;;;;4981877;28;20019;-96
2021/04/03 02:56:06;;;;;;;7.70;1.70;;;7.30;64.10;;;;;;4976958;28;20058;-95
2021/04/03 02:58:35;;;;;;;8.10;1.55;;;7.20;64.20;;;;;;4978504;28;20021;-96
2021/04/03 03:06:13;;;;;;;8.70;1.95;;;7.20;64.30;;;;;;5311095;23;20089;-95
2021/04/03 03:08:39;;;;;;;5.97;1.50;;;7.20;64.30;;;;;;4934910;29;20024;-95
2021/04/03 03:11:06;;;;;;;7.63;1.45;;;7.20;64.40;;;;;;4919321;29;20046;-94
2021/04/03 03:13:34;;;;;;;5.60;1.92;;;7.20;64.50;;;;;;4909473;29;20028;-96
2021/04/03 03:18:40;;;;;;;7.10;1.50;;;7.20;64.50;;;;;;5162249;23;20042;-96
2021/04/03 03:21:07;;;;;;;7.25;1.50;;;7.20;64.50;;;;;;4996475;28;20023;-96
2021/04/03 03:23:33;;;;;;;6.72;1.90;;;7.20;64.50;;;;;;4982507;28;20034;-95
2021/04/03 03:25:59;;;;;;;6.05;1.58;;;7.20;64.60;;;;;;4983777;28;20027;-93
2021/04/03 03:28:26;;;;;;;13.07;2.28;;;7.10;64.70;;;;;;4965827;28;20015;-91
2021/04/03 03:30:53;;;;;;;7.45;1.67;;;7.10;64.90;;;;;;4971170;28;20105;-92
2021/04/03 03:33:18;;;;;;;10.68;1.80;;;7.00;65.00;;;;;;4960264;28;20118;-92
2021/04/03 03:35:44;;;;;;;7.80;2.20;;;7.00;65.10;;;;;;4974173;28;20113;-91
2021/04/03 03:38:10;;;;;;;6.63;1.73;;;6.90;65.10;;;;;;4967984;28;20031;-94
2021/04/03 03:40:36;;;;;;;6.97;1.52;;;6.90;65.20;;;;;;4956758;28;20038;-92
2021/04/03 03:43:03;;;;;;;4.35;1.50;;;6.90;65.40;;;;;;4974398;28;20019;-93
2021/04/03 03:45:30;;;;;;;8.45;1.80;;;6.90;65.50;;;;;;4956858;28;20027;-91
2021/04/03 03:47:55;;;;;;;5.25;1.40;;;6.80;65.50;;;;;;4966998;28;20110;-91
2021/04/03 03:50:21;;;;;;;7.93;1.70;;;6.80;65.60;;;;;;4976316;28;20106;-94
2021/04/03 03:52:47;;;;;;;7.35;1.58;;;6.80;65.70;;;;;;4971220;28;20019;-93
2021/04/03 03:55:13;;;;;;;3.63;1.15;;;6.70;65.80;;;;;;4959481;28;20050;-92
2021/04/03 03:57:38;;;;;;;9.68;2.05;;;6.70;65.80;;;;;;4971533;28;20085;-96
2021/04/03 04:00:06;;;;;;;8.63;1.67;;;6.70;66.00;;;;;;4973840;28;20091;-94
2021/04/03 04:02:32;;;;;;;6.85;1.80;;;6.60;66.10;;;;;;4970658;28;20375;-96
2021/04/03 04:04:57;;;;;;;5.75;1.48;;;6.60;66.10;;;;;;4962272;28;20008;-96
2021/04/03 04:07:34;;;;;;;7.20;1.70;;;6.60;66.20;;;;;;4976150;28;20031;-93
2021/04/03 04:10:00;;;;;;;8.23;1.75;;;6.50;66.40;;;;;;4965735;28;20039;-93
2021/04/03 04:12:29;;;;;;;7.88;1.73;;;6.50;67.10;;;;;;4966272;28;20109;-93
2021/04/03 04:14:55;;;;;;;6.63;1.88;;;6.40;66.50;;;;;;4974954;28;20490;-93
2021/04/03 04:17:20;;;;;;;10.10;1.42;;;6.40;66.70;;;;;;4960708;28;20130;-94
2021/04/03 04:19:46;;;;;;;7.55;1.90;;;6.40;66.80;;;;;;4973529;28;20030;-91
2021/04/03 04:22:12;;;;;;;7.65;1.73;;;6.40;66.90;;;;;;4970886;28;20031;-93
2021/04/03 04:24:37;;;;;;;7.40;1.80;;;6.30;67.00;;;;;;4971553;28;20089;-94
2021/04/03 04:27:03;;;;;;;7.35;1.90;;;6.30;67.00;;;;;;4971348;28;20497;-93
2021/04/03 04:29:30;;;;;;;8.18;2.22;;;6.30;67.30;;;;;;4965075;28;20031;-92
2021/04/03 04:31:55;;;;;;;10.93;1.70;;;6.30;67.40;;;;;;4975060;28;20490;-91
2021/04/03 04:34:21;;;;;;;9.45;1.52;;;6.20;67.50;;;;;;4967072;28;20119;-92
2021/04/03 04:36:46;;;;;;;6.30;1.70;;;6.30;67.60;;;;;;4957919;28;20023;-93
2021/04/03 04:39:12;;;;;;;8.75;1.75;;;6.20;67.60;;;;;;4966372;28;20382;-91
2021/04/03 04:41:38;;;;;;;6.90;1.90;;;6.10;67.70;;;;;;4970657;28;20022;-93
2021/04/03 04:44:04;;;;;;;8.32;1.50;;;6.10;67.70;;;;;;4975218;28;20102;-93
2021/04/03 04:46:29;;;;;;;6.07;1.60;;;6.10;67.80;;;;;;4977177;28;20118;-92
2021/04/03 04:48:55;;;;;;;6.97;1.58;;;6.10;67.80;;;;;;4981661;28;20493;-93
2021/04/03 04:51:28;;;;;;;10.45;1.67;;;6.10;68.40;;;;;;4978347;28;20035;-93
2021/04/03 04:53:54;;;;;;;6.10;1.65;;;6.10;68.00;;;;;;4966896;28;20122;-94
2021/04/03 04:56:19;;;;;;;6.07;1.60;;;6.10;67.90;;;;;;4964507;29;20662;-94
2021/04/03 04:58:45;;;;;;;8.68;1.67;;;6.10;68.00;;;;;;4976137;28;20046;-94
2021/04/03 05:01:10;;;;;;;9.60;2.00;;;6.10;68.00;;;;;;4979210;28;20035;-94
2021/04/03 05:03:36;;;;;;;10.57;2.10;;;6.10;68.20;;;;;;4989460;28;20011;-95
2021/04/03 05:06:02;;;;;;;9.77;1.48;;;6.10;68.40;;;;;;4991908;28;20035;-93
2021/04/03 05:08:27;;;;;;;10.63;2.10;;;6.10;69.00;;;;;;4996400;28;20045;-93
2021/04/03 05:10:53;;;;;;;8.88;2.00;;;6.10;68.40;;;;;;4973629;28;20454;-93
2021/04/03 05:13:28;;;;;;;7.60;1.77;;;6.10;68.40;;;;;;4964647;28;20027;-96
2021/04/03 05:15:55;;;;;;;8.38;2.03;;;6.20;68.50;;;;;;4972176;28;20482;-96
2021/04/03 05:18:21;;;;;;;10.05;2.20;;;6.20;68.50;;;;;;4964841;28;20069;-94
2021/04/03 05:20:47;;;;;;;9.45;1.83;;;6.20;68.50;;;;;;4974625;28;20019;-92
2021/04/03 05:23:15;;;;;;;9.27;2.05;;;6.20;68.60;;;;;;4965604;28;20034;-92
2021/04/03 05:25:40;;;;;;;6.95;1.67;;;6.20;68.70;;;;;;4969029;28;20027;-90
2021/04/03 05:28:06;;;;;;;8.93;1.75;;;6.30;68.70;;;;;;4976000;28;20483;-93
2021/04/03 05:30:32;;;;;;;10.75;2.30;;;6.30;68.60;;;;;;4968310;28;20514;-88
2021/04/03 05:32:58;;;;;;;6.47;1.88;;;6.30;68.70;;;;;;4972971;28;20080;-87
2021/04/03 05:35:23;;;;;;;9.82;2.03;;;6.30;68.80;;;;;;4970738;28;20026;-87
2021/04/03 05:37:49;;;;;;;10.52;2.22;;;6.30;68.80;;;;;;4972762;28;20027;-88
2021/04/03 05:40:15;;;;;;;6.60;1.80;;;6.30;68.90;;;;;;4973198;28;20027;-89
2021/04/03 05:42:44;;;;;;;6.90;1.67;;;6.40;68.90;;;;;;4974661;28;20027;-89
2021/04/03 05:45:15;;;;;;;11.55;2.38;;;6.40;69.00;;;;;;4968978;28;20481;-88
2021/04/03 05:47:41;;;;;;;11.23;2.40;;;6.40;69.10;;;;;;4965140;28;20018;-90
2021/04/03 05:50:07;;;;;;;10.80;2.35;;;6.30;69.20;;;;;;4983269;28;20034;-89
2021/04/03 05:52:34;;;;;;;11.93;2.60;;;6.40;69.50;;;;;;4970278;28;20048;-88
2021/04/03 05:55:01;;;;;;;13.88;2.58;;;6.50;69.60;;;;;;4971896;28;20024;-89
2021/04/03 05:57:27;;;;;;;10.50;2.28;;;6.70;69.60;;;;;;4984029;28;20022;-90
2021/04/03 05:59:53;;;;;;;13.90;2.53;;;6.80;69.00;;;;;;4986068;28;20084;-89
2021/04/03 06:02:18;;;;;;;14.50;2.60;;;7.00;68.70;;;;;;4965244;28;20019;-90
2021/04/03 06:04:44;;;;;;;12.10;2.92;;;7.00;68.50;;;;;;4974333;28;20058;-88
2021/04/03 06:07:09;;;;;;;17.90;3.58;;;7.20;68.50;;;;;;4965575;28;20054;-88
2021/04/03 06:09:36;;;;;;;17.40;3.00;;;7.20;68.50;;;;;;4958484;28;20022;-89
2021/04/03 06:12:02;;;;;;;12.32;2.83;;;7.30;68.50;;;;;;4967366;28;20035;-89
2021/04/03 06:14:37;;;;;;;12.82;2.38;;;7.30;68.40;;;;;;4967957;28;20094;-90
2021/04/03 06:17:03;;;;;;;15.18;3.10;;;7.60;68.00;;;;;;4986895;28;20037;-90
2021/04/03 06:19:29;;;;;;;13.35;3.00;;;7.70;67.70;;;;;;4969065;28;20078;-88
2021/04/03 06:22:00;;;;;;;12.10;2.72;;;7.90;67.70;;;;;;4980346;28;20022;-88
2021/04/03 06:24:27;;;;;;;14.18;2.75;;;8.00;67.30;;;;;;4963772;28;20086;-89
2021/04/03 06:26:56;;;;;;;16.77;3.28;;;7.90;67.30;;;;;;4991610;28;20105;-89
2021/04/03 06:29:30;;;;;;;17.67;3.55;;;7.90;67.60;;;;;;4968694;28;20034;-88
2021/04/03 06:31:58;;;;;;;16.05;3.70;;;8.10;67.80;;;;;;4964288;28;20504;-88
2021/04/03 06:34:46;;;;;;;11.60;2.95;;;8.10;67.80;;;;;;4972398;28;20086;-87
2021/04/03 06:37:12;;;;;;;15.50;3.25;;;8.10;67.60;;;;;;4968830;28;20027;-89
2021/04/03 06:40:06;;;;;;;15.77;3.30;;;8.00;67.70;;;;;;4972643;28;20027;-90
2021/04/03 06:42:50;;;;;;;15.88;3.47;;;8.10;67.80;;;;;;4966574;28;20057;-93
2021/04/03 06:45:33;;;;;;;13.52;2.92;;;8.40;67.40;;;;;;4964148;28;20046;-90
2021/04/03 06:48:01;;;;;;;15.10;2.97;;;8.70;66.50;;;;;;4979248;28;20376;-89
2021/04/03 06:50:36;;;;;;;16.33;3.30;;;8.70;66.10;;;;;;4974834;28;20050;-94
2021/04/03 06:53:07;;;;;;;13.10;3.58;;;8.90;65.90;;;;;;4976279;28;20545;-91
2021/04/03 06:55:34;;;;;;;15.63;3.20;;;9.10;65.30;;;;;;4972782;28;20027;-92
2021/04/03 06:58:03;;;;;;;14.18;2.85;;;9.30;65.00;;;;;;4975265;28;20094;-93
2021/04/03 07:00:34;;;;;;;17.20;3.42;;;9.70;64.20;;;;;;4975533;28;20038;-96
2021/04/03 07:03:25;;;;;;;10.63;3.03;;;10.20;62.90;;;;;;4974683;28;20038;-96
2021/04/03 07:05:51;;;;;;;13.55;3.08;;;10.10;61.90;;;;;;4982258;28;20047;-96
2021/04/03 07:08:18;;;;;;;12.15;3.53;;;9.90;62.00;;;;;;4979525;28;20101;-96
2021/04/03 07:10:45;;;;;;;10.65;3.08;;;9.80;62.30;;;;;;4998547;28;20044;-96
2021/04/03 07:13:12;;;;;;;14.82;3.80;;;9.90;63.00;;;;;;4982459;28;20023;-96
2021/04/03 07:15:38;;;;;;;13.43;3.28;;;9.90;62.40;;;;;;4977461;28;20034;-96
2021/04/03 07:18:07;;;;;;;8.50;2.50;;;9.80;62.30;;;;;;4970750;28;20039;-93
2021/04/03 07:20:34;;;;;;;16.00;3.25;;;9.80;62.80;;;;;;4979867;28;20026;-94
2021/04/03 07:23:12;;;;;;;16.10;3.58;;;9.80;62.70;;;;;;4978800;28;20050;-93
2021/04/03 07:25:44;;;;;;;12.05;2.85;;;9.70;62.70;;;;;;4983184;28;20113;-94
2021/04/03 07:28:10;;;;;;;14.18;3.17;;;9.60;63.20;;;;;;4979246;28;20513;-89
2021/04/03 07:30:36;;;;;;;18.48;4.05;;;9.70;63.60;;;;;;4964529;28;20023;-91
2021/04/03 07:33:07;;;;;;;16.52;3.83;;;9.90;62.60;;;;;;4968245;28;20032;-91
2021/04/03 07:35:38;;;;;;;13.65;3.60;;;9.90;62.30;;;;;;4968811;28;20027;-93
2021/04/03 07:38:09;;;;;;;18.38;3.78;;;9.90;62.10;;;;;;4983730;28;20113;-93
2021/04/03 07:40:48;;;;;;;12.65;3.55;;;9.80;62.00;;;;;;4977881;28;20106;-93
2021/04/03 07:43:29;;;;;;;12.98;3.50;;;9.80;62.10;;;;;;4949904;28;20047;-91
2021/04/03 07:46:00;;;;;;;8.98;2.53;;;9.70;62.00;;;;;;4978245;28;20189;-91
2021/04/03 07:48:38;;;;;;;12.52;2.88;;;9.70;62.20;;;;;;4989252;28;20023;-90
2021/04/03 07:51:04;;;;;;;11.35;2.63;;;9.70;62.20;;;;;;4980283;28;20050;-90
2021/04/03 07:53:42;;;;;;;15.75;3.90;;;9.70;62.30;;;;;;4959613;28;20015;-90
2021/04/03 07:56:09;;;;;;;15.75;3.85;;;9.70;62.20;;;;;;4968613;28;20027;-90
2021/04/03 07:58:36;;;;;;;16.33;3.28;;;9.60;62.50;;;;;;4968536;28;20485;-90
2021/04/03 08:01:06;;;;;;;16.10;3.13;;;9.50;62.70;;;;;;4979042;28;20023;-88
2021/04/03 08:03:33;;;;;;;11.57;2.67;;;9.40;63.00;;;;;;4975771;28;20026;-90
2021/04/03 08:06:00;;;;;;;13.75;3.22;;;9.40;63.10;;;;;;4970761;28;20035;-90
2021/04/03 08:08:32;;;;;;;12.05;2.85;;;9.50;63.00;;;;;;4973750;28;20045;-90
2021/04/03 08:11:08;;;;;;;11.05;2.55;;;9.50;62.90;;;;;;4982814;28;20043;-92
2021/04/03 08:13:43;;;;;;;12.40;3.10;;;9.50;63.00;;;;;;4999324;28;20030;-96
2021/04/03 08:16:13;;;;;;;11.20;2.70;;;9.50;62.90;;;;;;4981603;28;20035;-96
2021/04/03 08:18:50;;;;;;;9.18;2.42;;;9.70;62.60;;;;;;4977871;28;20027;-94
2021/04/03 08:21:16;;;;;;;10.38;3.20;;;10.00;62.20;;;;;;4967938;28;20018;-91
2021/04/03 08:23:48;;;;;;;15.32;3.67;;;10.30;61.60;;;;;;4997204;28;20022;-92
2021/04/03 08:26:14;;;;;;;12.98;2.80;;;10.40;61.00;;;;;;4966005;28;20053;-92
2021/04/03 08:28:40;;;;;;;12.38;3.13;;;10.40;60.90;;;;;;4962578;28;20025;-91
2021/04/03 08:31:19;;;;;;;9.15;2.80;;;10.40;60.80;;;;;;4978054;28;20030;-90
2021/04/03 08:33:47;;;;;;;12.07;3.28;;;10.40;60.80;;;;;;4974829;28;20019;-92
2021/04/03 08:36:14;;;;;;;9.63;3.40;;;10.50;60.80;;;;;;4971092;28;20450;-92
2021/04/03 08:38:47;;;;;;;15.10;3.97;;;10.40;60.60;;;;;;4978154;28;20026;-91
2021/04/03 08:41:25;;;;;;;9.63;2.60;;;10.30;60.60;;;;;;4977768;28;20034;-95
2021/04/03 08:43:52;;;;;;;9.73;2.60;;;10.40;60.80;;;;;;4992728;28;20085;-95
2021/04/03 08:46:18;;;;;;;10.50;2.78;;;10.50;60.50;;;;;;4976978;28;20129;-95
2021/04/03 08:48:55;;;;;;;10.75;2.85;;;10.50;60.30;;;;;;4982831;28;20087;-95
2021/04/03 08:51:21;;;;;;;11.40;2.63;;;10.40;60.30;;;;;;4968002;28;20074;-95
2021/04/03 08:53:48;;;;;;;11.07;2.85;;;10.50;60.30;;;;;;4975172;28;20452;-95
2021/04/03 08:56:20;;;;;;;10.52;2.90;;;10.60;60.10;;;;;;4974528;28;20082;-93
2021/04/03 08:58:46;;;;;;;12.20;3.20;;;10.60;59.90;;;;;;4977762;28;20035;-95
2021/04/03 09:01:12;;;;;;;10.93;2.80;;;10.50;59.80;;;;;;4978329;28;20023;-95
2021/04/03 09:03:38;;;;;;;11.40;2.72;;;10.50;59.80;;;;;;4986569;28;20026;-95
2021/04/03 09:06:06;;;;;;;4.95;1.95;;;10.70;59.70;;;;;;4978584;28;20035;-95
2021/04/03 09:08:32;;;;;;;11.77;3.42;;;10.80;59.40;;;;;;4976738;28;20031;-93
2021/04/03 09:11:03;;;;;;;11.90;3.65;;;10.70;58.60;;;;;;4971584;28;20035;-93
2021/04/03 09:13:39;;;;;;;15.20;3.95;;;10.50;58.50;;;;;;4973808;28;20034;-94
2021/04/03 09:16:09;;;;;;;11.02;2.70;;;10.50;58.90;;;;;;4975716;28;20050;-94
2021/04/03 09:18:35;;;;;;;11.20;3.08;;;10.60;59.10;;;;;;4969631;28;20445;-93
2021/04/03 09:21:01;;;;;;;10.73;2.78;;;10.80;58.90;;;;;;4977185;28;20019;-91
2021/04/03 09:23:27;;;;;;;10.50;2.88;;;10.80;58.40;;;;;;4971839;28;20070;-93
2021/04/03 09:26:00;;;;;;;8.05;2.85;;;10.80;58.40;;;;;;4983692;28;20019;-93
2021/04/03 09:28:40;;;;;;;11.18;2.53;;;10.80;58.20;;;;;;4978603;28;20035;-92
2021/04/03 09:31:10;;;;;;;7.60;2.35;;;10.70;58.30;;;;;;4963864;28;20046;-93
2021/04/03 09:33:49;;;;;;;9.25;2.75;;;10.80;58.50;;;;;;4984124;28;20673;-92
2021/04/03 09:36:17;;;;;;;14.10;3.33;;;11.00;58.30;;;;;;4981366;28;20109;-90
2021/04/03 09:38:44;;;;;;;13.45;3.67;;;11.00;57.50;;;;;;4975572;28;20054;-88
2021/04/03 09:41:33;;;;;;;7.70;2.13;;;11.10;56.90;;;;;;4969240;28;20159;-89
2021/04/03 09:43:59;;;;;;;7.25;1.95;;;11.30;57.30;;;;;;4976333;28;20039;-89
2021/04/03 09:46:24;;;;;;;7.03;2.22;;;11.50;56.90;;;;;;4978379;28;20023;-89
2021/04/03 09:48:50;;;;;;;11.73;3.15;;;11.60;56.40;;;;;;4971308;28;20452;-88
2021/04/03 09:51:16;;;;;;;9.40;2.33;;;11.60;55.80;;;;;;4972960;28;20038;-87
2021/04/03 09:53:43;;;;;;;11.30;2.38;;;11.60;55.90;;;;;;4975407;28;20073;-89
2021/04/03 09:56:09;;;;;;;7.68;2.38;;;11.70;56.00;;;;;;4975895;28;20120;-87
2021/04/03 09:58:34;;;;;;;8.13;2.22;;;11.70;55.70;;;;;;4973167;28;20553;-88
2021/04/03 10:01:00;;;;;;;10.75;3.00;;;11.70;55.60;;;;;;4971208;28;20022;-89
2021/04/03 10:06:20;;;;;;;8.20;2.20;;;11.60;55.70;;;;;;5099770;23;20058;-90
2021/04/03 10:08:46;;;;;;;7.85;2.35;;;11.60;55.90;;;;;;4976519;28;20026;-91
2021/04/03 10:11:11;;;;;;;7.88;2.60;;;11.70;55.60;;;;;;4975792;28;20054;-91
2021/04/03 10:13:37;;;;;;;10.52;2.85;;;11.80;55.50;;;;;;4975996;28;20022;-91
2021/04/03 10:16:03;;;;;;;6.88;2.50;;;11.80;54.40;;;;;;4974433;28;20081;-89
2021/04/03 10:18:29;;;;;;;9.48;2.30;;;11.80;54.80;;;;;;4969902;28;20015;-90
2021/04/03 10:20:54;;;;;;;8.15;2.00;;;11.90;54.80;;;;;;4982244;28;20055;-91
2021/04/03 10:23:20;;;;;;;9.85;2.50;;;11.90;54.30;;;;;;4979276;28;20027;-90
2021/04/03 10:25:47;;;;;;;10.40;2.55;;;12.00;53.90;;;;;;4979637;28;20046;-89
2021/04/03 10:28:12;;;;;;;7.00;2.30;;;12.20;53.90;;;;;;4981417;28;20058;-90
2021/04/03 10:30:38;;;;;;;7.32;2.35;;;12.30;53.90;;;;;;4979319;28;20050;-90
2021/04/03 10:33:04;;;;;;;10.98;2.90;;;12.20;53.60;;;;;;4970401;28;20069;-89
2021/04/03 10:35:29;;;;;;;9.10;3.22;;;12.10;53.50;;;;;;4972827;28;20420;-89
2021/04/03 10:37:56;;;;;;;10.55;2.72;;;12.10;53.60;;;;;;4975665;28;20037;-89
2021/04/03 10:40:22;;;;;;;6.80;2.50;;;12.10;53.10;;;;;;4978148;28;20026;-90
2021/04/03 10:42:47;;;;;;;7.43;2.60;;;12.00;53.10;;;;;;4975828;28;20042;-90
2021/04/03 10:45:13;;;;;;;7.10;2.38;;;12.10;52.50;;;;;;4975090;28;20408;-89
2021/04/03 10:47:39;;;;;;;7.45;2.60;;;12.10;52.30;;;;;;4972913;28;20043;-89
2021/04/03 10:50:05;;;;;;;5.88;2.10;;;12.30;52.30;;;;;;4980377;28;20086;-93
2021/04/03 10:52:30;;;;;;;8.48;2.40;;;12.30;51.40;;;;;;4976343;28;20039;-91
2021/04/03 10:54:56;;;;;;;6.40;2.20;;;12.50;51.40;;;;;;4974594;28;20078;-91
2021/04/03 10:57:22;;;;;;;10.30;2.58;;;12.70;51.30;;;;;;4979066;28;20021;-92
2021/04/03 10:59:51;;;;;;;9.05;2.67;;;12.80;50.90;;;;;;4979543;28;20026;-92
2021/04/03 11:02:17;;;;;;;11.30;2.90;;;12.70;50.80;;;;;;4994345;28;20328;-95
2021/04/03 11:04:43;;;;;;;8.02;2.13;;;12.70;51.20;;;;;;4982711;28;20015;-93
2021/04/03 11:07:08;;;;;;;8.07;2.28;;;12.70;51.50;;;;;;4976770;28;20035;-94
2021/04/03 11:09:34;;;;;;;7.03;1.95;;;12.70;51.60;;;;;;4975638;28;20031;-96
2021/04/03 11:12:00;;;;;;;8.52;2.30;;;12.80;51.40;;;;;;4971134;28;20038;-94
2021/04/03 11:14:25;;;;;;;8.13;2.70;;;12.80;51.20;;;;;;4986792;28;20880;-95
2021/04/03 11:16:51;;;;;;;8.02;2.45;;;12.80;51.00;;;;;;4974634;28;20038;-94
2021/04/03 11:19:16;;;;;;;6.93;2.45;;;12.90;51.20;;;;;;4984071;28;20030;-96
2021/04/03 11:21:42;;;;;;;8.32;2.42;;;13.10;51.10;;;;;;4977254;28;20026;-94
2021/04/03 11:24:08;;;;;;;6.03;2.22;;;13.20;50.50;;;;;;4983305;28;20093;-92
2021/04/03 11:26:34;;;;;;;9.48;3.00;;;13.20;50.00;;;;;;4976383;28;20424;-93
2021/04/03 11:29:01;;;;;;;7.72;2.45;;;13.20;48.40;;;;;;4984090;28;20076;-94
2021/04/03 11:31:26;;;;;;;8.98;2.65;;;13.10;48.70;;;;;;4961785;28;20045;-95
2021/04/03 11:33:53;;;;;;;6.53;2.10;;;13.10;48.80;;;;;;4987472;28;20026;-95
2021/04/03 11:36:19;;;;;;;6.70;2.17;;;13.30;48.90;;;;;;4980490;28;20026;-93
2021/04/03 11:38:45;;;;;;;8.55;2.47;;;13.30;48.50;;;;;;4976539;28;20454;-93
2021/04/03 11:41:10;;;;;;;5.43;1.75;;;13.30;48.30;;;;;;4972951;28;20393;-92
2021/04/03 11:43:36;;;;;;;4.53;1.90;;;13.50;48.60;;;;;;4971752;28;20476;-93
2021/04/03 11:46:01;;;;;;;9.93;2.60;;;13.60;48.40;;;;;;4973802;28;20014;-92
2021/04/03 11:48:27;;;;;;;6.93;2.15;;;13.50;48.10;;;;;;4977487;28;20055;-93
2021/04/03 11:50:53;;;;;;;12.20;3.38;;;13.50;48.40;;;;;;4976279;28;20038;-93
2021/04/03 11:53:19;;;;;;;8.13;2.17;;;13.40;48.30;;;;;;4971150;28;20036;-92
2021/04/03 11:55:44;;;;;;;5.95;1.80;;;13.30;48.30;;;;;;4957743;28;20032;-93
2021/04/03 11:58:10;;;;;;;6.07;2.30;;;13.40;48.50;;;;;;4969831;28;20023;-92
2021/04/03 12:00:36;;;;;;;8.30;2.20;;;13.60;48.50;;;;;;4973930;28;20016;-93
2021/04/03 12:03:02;;;;;;;8.60;2.88;;;13.70;48.00;;;;;;4978128;28;20043;-93
2021/04/03 12:05:28;;;;;;;9.93;2.60;;;13.80;47.70;;;;;;4983429;28;20011;-94
2021/04/03 12:07:55;;;;;;;10.18;2.55;;;13.80;47.40;;;;;;4993734;28;20034;-93
2021/04/03 12:10:21;;;;;;;4.55;1.85;;;13.80;47.50;;;;;;4976629;28;20166;-92
2021/04/03 12:12:46;;;;;;;6.65;2.00;;;13.90;47.80;;;;;;4973761;28;20059;-92
2021/04/03 12:15:13;;;;;;;7.22;2.13;;;14.00;48.30;;;;;;4975207;28;20031;-92
2021/04/03 12:17:39;;;;;;;6.32;2.20;;;14.10;47.30;;;;;;4972747;28;20094;-93
2021/04/03 12:20:08;;;;;;;7.15;2.00;;;14.20;46.80;;;;;;4973324;28;20353;-92
2021/04/03 12:22:33;;;;;;;7.05;2.20;;;14.20;46.30;;;;;;4974584;28;20037;-93
2021/04/03 12:24:59;;;;;;;7.53;2.50;;;14.20;46.20;;;;;;4974546;28;20027;-91
2021/04/03 12:27:25;;;;;;;16.95;7.82;;;14.50;46.00;;;;;;4979320;28;20102;-93
2021/04/03 12:29:50;;;;;;;12.55;5.20;;;14.50;45.00;;;;;;4974323;28;20366;-93
2021/04/03 12:32:16;;;;;;;9.23;4.10;;;14.30;44.60;;;;;;4961294;28;20035;-93
2021/04/03 12:34:45;;;;;;;9.93;2.80;;;14.10;45.30;;;;;;4983519;28;20026;-92
2021/04/03 12:37:15;;;;;;;8.43;2.50;;;14.00;45.80;;;;;;4991621;28;20062;-93
2021/04/03 12:39:41;;;;;;;8.93;2.38;;;13.90;46.00;;;;;;4985218;28;20133;-92
2021/04/03 12:42:07;;;;;;;8.40;2.60;;;14.00;46.10;;;;;;4981339;28;20461;-92
2021/04/03 12:44:34;;;;;;;8.55;2.60;;;14.00;45.60;;;;;;4984407;28;20022;-96
2021/04/03 12:47:00;;;;;;;7.45;2.38;;;14.20;45.50;;;;;;4993429;28;20022;-96
2021/04/03 12:49:28;;;;;;;8.55;2.35;;;14.50;45.30;;;;;;5033133;23;20047;-95
2021/04/03 12:56:56;;;;;;;4.72;1.98;;;14.80;44.90;;;;;;4965381;28;20062;-96
2021/04/03 12:59:22;;;;;;;7.53;1.90;;;14.70;44.80;;;;;;4977238;28;20034;-96
2021/04/03 13:01:53;;;;;;;6.30;2.20;;;14.70;44.90;;;;;;4975726;28;20023;-96
2021/04/03 13:04:18;;;;;;;7.60;2.50;;;14.70;44.20;;;;;;4955838;28;20398;-95
2021/04/03 13:06:44;;;;;;;8.00;2.08;;;14.50;44.30;;;;;;4956135;28;20098;-96
2021/04/03 13:09:09;;;;;;;8.43;2.35;;;14.50;44.60;;;;;;4947264;29;20027;-96
2021/04/03 13:11:35;;;;;;;7.65;2.00;;;14.60;43.90;;;;;;4952510;28;20037;-96
2021/04/03 13:14:01;;;;;;;7.72;2.80;;;14.70;44.80;;;;;;4945635;28;20505;-95
2021/04/03 13:16:26;;;;;;;6.97;2.47;;;14.80;43.80;;;;;;4950411;28;20039;-94
2021/04/03 13:18:52;;;;;;;6.60;2.30;;;14.90;43.70;;;;;;4944894;28;20039;-94
2021/04/03 13:21:18;;;;;;;5.95;1.90;;;15.10;43.30;;;;;;4951620;28;20047;-96
2021/04/03 13:23:44;;;;;;;7.00;2.30;;;15.30;43.20;;;;;;4942728;28;20055;-96
2021/04/03 13:26:10;;;;;;;6.95;2.05;;;15.40;42.50;;;;;;4948175;29;20015;-94
2021/04/03 13:28:36;;;;;;;6.45;2.00;;;15.50;42.30;;;;;;4946887;29;20016;-94